Jonesville, Louisiana
Current Conditions -  °F | °C
As of 8:55 AM on Wednesday 22 Oct 2014 (Local Time) from KHEZ Reporting Station
Clear Clear  
Wind Chill: 63°   Ceiling: Unl
Heat Index: 63°   Visibility: 10mi
Dew Point: 55°   Wind: 9mph
Humidity: 77%   Direction: 50°NE
Pressure: 30.14"   Gusts: NA
Location:  31.63°N, 91.82°W
Report Text: KHEZ 221355Z AUTO 05008KT 10SM CLR 17/13 A3014 RMK AO1
Loading
Personal Weather Stations






























Interactive Weather Map
Tropical Storm Tracking
New forecast layout! Learn more

10-Day Weather Forecast

Advertisements
Track Severe Weather on mobile